createdAt,value
2022-10-10T00:00:48.631Z,79.33
2022-10-10T00:03:12.687Z,79.40
2022-10-10T00:05:37.360Z,79.47
2022-10-10T00:08:01.128Z,79.43
2022-10-10T00:10:26.890Z,79.74
2022-10-10T00:12:50.848Z,80.43
2022-10-10T00:15:16.355Z,80.28
2022-10-10T00:17:40.551Z,80.04
2022-10-10T00:20:04.457Z,80.20
2022-10-10T00:22:28.033Z,79.85
2022-10-10T00:24:51.835Z,80.70
2022-10-10T00:27:16.920Z,80.17
2022-10-10T00:29:40.518Z,80.01
2022-10-10T00:32:04.123Z,79.13
2022-10-10T00:34:27.716Z,78.83
2022-10-10T00:36:51.418Z,79.15
2022-10-10T00:39:15.002Z,79.63
2022-10-10T00:41:38.659Z,79.64
2022-10-10T00:44:07.204Z,79.12
2022-10-10T00:46:30.813Z,78.74
2022-10-10T00:48:54.371Z,78.70
2022-10-10T00:51:21.005Z,79.13
2022-10-10T00:53:48.399Z,78.64
2022-10-10T00:56:13.853Z,78.34
2022-10-10T00:58:39.264Z,78.22
2022-10-10T01:01:04.602Z,78.45
2022-10-10T01:03:28.573Z,78.75
2022-10-10T01:05:52.495Z,80.14
2022-10-10T01:08:16.419Z,79.42
2022-10-10T01:11:18.252Z,78.96
2022-10-10T01:13:53.700Z,79.75
2022-10-10T01:16:26.826Z,79.65
2022-10-10T01:19:02.576Z,80.81
2022-10-10T01:21:34.056Z,80.60
2022-10-10T01:24:41.916Z,79.89
2022-10-10T01:27:31.827Z,79.80
2022-10-10T01:29:59.565Z,79.96
2022-10-10T01:32:31.259Z,79.63
2022-10-10T01:35:08.242Z,79.47
2022-10-10T01:37:41.827Z,78.85
2022-10-10T01:40:13.747Z,80.25
2022-10-10T01:42:42.964Z,79.60
2022-10-10T01:45:09.611Z,79.50
2022-10-10T01:47:33.235Z,80.47
2022-10-10T01:50:02.485Z,79.77
2022-10-10T01:52:39.615Z,79.30
2022-10-10T01:55:21.339Z,80.88
2022-10-10T01:57:58.600Z,81.47
2022-10-10T02:00:23.596Z,80.07
2022-10-10T02:02:56.895Z,79.96
2022-10-10T02:05:28.639Z,79.98
2022-10-10T02:07:58.970Z,80.90
2022-10-10T02:10:27.206Z,80.18
2022-10-10T02:12:51.749Z,80.00
2022-10-10T02:15:18.304Z,79.28
2022-10-10T02:17:46.903Z,79.07
2022-10-10T02:20:15.065Z,80.16
2022-10-10T02:22:41.176Z,80.19
2022-10-10T02:25:05.304Z,79.95
2022-10-10T02:27:36.879Z,80.44
2022-10-10T02:30:04.417Z,80.18
2022-10-10T02:32:34.221Z,80.51
2022-10-10T02:35:07.681Z,80.45
2022-10-10T02:37:32.137Z,79.73
2022-10-10T02:40:00.978Z,80.60
2022-10-10T02:42:25.867Z,80.64
2022-10-10T02:44:49.867Z,80.04
2022-10-10T02:47:14.112Z,80.25
2022-10-10T02:49:38.076Z,81.08
2022-10-10T02:52:03.252Z,81.35
2022-10-10T02:54:27.159Z,80.75
2022-10-10T02:56:50.973Z,81.41
2022-10-10T02:59:14.505Z,80.95
2022-10-10T03:01:38.119Z,81.21
2022-10-10T03:04:01.882Z,80.63
2022-10-10T03:06:25.451Z,81.23
2022-10-10T03:08:50.383Z,81.27
2022-10-10T03:11:13.972Z,81.94
2022-10-10T03:13:37.492Z,81.17
2022-10-10T03:16:01.143Z,80.76
2022-10-10T03:18:25.288Z,81.11
2022-10-10T03:20:52.538Z,81.16
2022-10-10T03:23:16.036Z,81.29
2022-10-10T03:25:43.923Z,82.27
2022-10-10T03:28:07.485Z,80.68
2022-10-10T03:30:31.095Z,81.35
2022-10-10T03:32:54.639Z,81.29
2022-10-10T03:35:18.367Z,80.72
2022-10-10T03:37:41.891Z,81.59
2022-10-10T03:40:06.624Z,83.23
2022-10-10T03:42:31.520Z,82.24
2022-10-10T03:44:55.050Z,81.67
2022-10-10T03:47:18.629Z,81.09
2022-10-10T03:49:42.468Z,81.00
2022-10-10T03:52:05.979Z,81.71
2022-10-10T03:54:29.748Z,83.02
2022-10-10T03:56:53.245Z,84.17
2022-10-10T03:59:18.191Z,83.92
2022-10-10T04:01:41.892Z,83.59
2022-10-10T04:04:06.215Z,84.56
2022-10-10T04:06:30.002Z,84.14
2022-10-10T04:08:53.635Z,83.94
2022-10-10T04:11:17.192Z,84.28
2022-10-10T04:13:40.791Z,83.80
2022-10-10T04:16:06.036Z,83.10
2022-10-10T04:18:29.636Z,81.48
2022-10-10T04:20:53.414Z,82.64
2022-10-10T04:23:17.410Z,81.91
2022-10-10T04:25:41.947Z,81.95
2022-10-10T04:28:05.680Z,83.93
2022-10-10T04:30:31.288Z,82.60
2022-10-10T04:32:56.307Z,83.07
2022-10-10T04:35:20.063Z,83.56
2022-10-10T04:37:43.654Z,84.28
2022-10-10T04:40:08.418Z,83.47
2022-10-10T04:42:32.015Z,83.36
2022-10-10T04:44:55.570Z,84.98
2022-10-10T04:47:19.418Z,84.58
2022-10-10T04:49:44.451Z,87.12
2022-10-10T04:52:08.109Z,86.30
2022-10-10T04:54:31.877Z,85.35
2022-10-10T04:56:55.541Z,85.14
2022-10-10T04:59:19.195Z,83.95
2022-10-10T05:01:42.876Z,87.07
2022-10-10T05:04:06.982Z,86.83
2022-10-10T05:06:32.111Z,85.69
2022-10-10T05:08:55.654Z,87.51
2022-10-10T05:11:19.238Z,88.25
2022-10-10T05:13:42.914Z,87.16
2022-10-10T05:16:07.200Z,87.21
2022-10-10T05:18:30.800Z,86.02
2022-10-10T05:20:54.441Z,86.23
2022-10-10T05:23:19.619Z,87.34
2022-10-10T05:25:45.964Z,86.72
2022-10-10T05:28:09.565Z,88.15
2022-10-10T05:30:33.189Z,87.00
2022-10-10T05:32:56.719Z,86.77
2022-10-10T05:35:20.437Z,86.25
2022-10-10T05:37:43.928Z,85.93
2022-10-10T05:40:10.730Z,86.26
2022-10-10T05:42:34.399Z,84.96
2022-10-10T05:44:57.971Z,85.02
2022-10-10T05:47:26.804Z,84.02
2022-10-10T05:49:51.315Z,83.34
2022-10-10T05:52:14.832Z,82.52
2022-10-10T05:54:38.510Z,82.26
2022-10-10T05:57:03.527Z,82.22
2022-10-10T05:59:27.263Z,82.00
2022-10-10T06:01:50.807Z,80.83
2022-10-10T06:04:14.383Z,81.91
2022-10-10T06:06:37.897Z,81.76
2022-10-10T06:09:01.455Z,82.35
2022-10-10T06:11:26.056Z,82.06
2022-10-10T06:13:54.220Z,82.04
2022-10-10T06:16:18.136Z,83.10
2022-10-10T06:18:41.762Z,82.53
2022-10-10T06:21:07.937Z,84.13
2022-10-10T06:23:31.531Z,83.64
2022-10-10T06:25:55.160Z,83.63
2022-10-10T06:28:18.734Z,83.00
2022-10-10T06:30:48.504Z,83.89
2022-10-10T06:33:15.223Z,83.98
2022-10-10T06:35:43.413Z,84.28
2022-10-10T06:38:06.980Z,85.67
2022-10-10T06:40:30.539Z,85.66
2022-10-10T06:42:54.357Z,85.68
2022-10-10T06:45:18.198Z,86.07
2022-10-10T06:47:43.162Z,85.17
2022-10-10T06:50:07.358Z,84.41
2022-10-10T06:52:30.940Z,84.28
2022-10-10T06:54:54.557Z,85.13
2022-10-10T06:57:18.127Z,83.59
2022-10-10T06:59:41.626Z,82.75
2022-10-10T07:02:05.359Z,83.06
2022-10-10T07:04:30.311Z,83.06
2022-10-10T07:06:53.869Z,82.71
2022-10-10T07:09:18.836Z,81.77
2022-10-10T07:11:45.399Z,81.44
2022-10-10T07:14:08.903Z,81.48
2022-10-10T07:16:34.091Z,81.02
2022-10-10T07:18:57.665Z,80.08
2022-10-10T07:21:22.733Z,79.07
2022-10-10T07:23:46.352Z,78.72
2022-10-10T07:26:13.538Z,78.92
2022-10-10T07:28:37.163Z,77.77
2022-10-10T07:31:03.333Z,77.71
2022-10-10T07:33:26.907Z,76.95
2022-10-10T07:35:55.189Z,77.28
2022-10-10T07:38:20.186Z,75.74
2022-10-10T07:40:43.756Z,75.27
2022-10-10T07:43:07.422Z,74.94
2022-10-10T07:45:30.999Z,74.49
2022-10-10T07:47:54.711Z,74.70
2022-10-10T07:50:18.423Z,73.95
2022-10-10T07:52:42.567Z,73.80
2022-10-10T07:55:09.250Z,74.25
2022-10-10T07:57:35.060Z,74.47
2022-10-10T07:59:58.680Z,73.50
2022-10-10T08:02:22.187Z,72.83
2022-10-10T08:04:45.735Z,73.36
2022-10-10T08:07:09.520Z,72.72
2022-10-10T08:09:33.065Z,72.04
2022-10-10T08:11:58.043Z,72.02
2022-10-10T08:14:21.668Z,71.55
2022-10-10T08:16:45.660Z,69.65
2022-10-10T08:19:09.827Z,69.00
2022-10-10T08:21:36.133Z,69.06
2022-10-10T08:23:59.721Z,69.64
2022-10-10T08:26:23.336Z,66.94
2022-10-10T08:28:49.498Z,66.60
2022-10-10T08:31:15.437Z,65.37
2022-10-10T08:33:40.036Z,65.47
2022-10-10T08:36:08.207Z,65.58
2022-10-10T08:38:31.766Z,64.17
2022-10-10T08:40:58.395Z,65.13
2022-10-10T08:43:29.876Z,64.91
2022-10-10T08:45:58.727Z,64.14
2022-10-10T08:48:27.064Z,63.83
2022-10-10T08:50:57.173Z,62.33
2022-10-10T08:53:25.896Z,63.59
2022-10-10T08:55:50.328Z,64.27
2022-10-10T08:58:20.910Z,62.04
2022-10-10T09:00:49.881Z,61.82
2022-10-10T09:03:30.390Z,62.81
2022-10-10T09:06:18.352Z,61.70
2022-10-10T09:08:53.903Z,61.37
2022-10-10T09:11:38.682Z,62.50
2022-10-10T09:14:15.950Z,61.97
2022-10-10T09:16:50.571Z,62.25
2022-10-10T09:19:32.247Z,61.34
2022-10-10T09:22:02.303Z,59.04
2022-10-10T09:24:33.400Z,61.29
2022-10-10T09:27:04.972Z,59.41
2022-10-10T09:29:34.472Z,58.93
2022-10-10T09:32:02.468Z,57.46
2022-10-10T09:34:36.329Z,56.25
2022-10-10T09:37:02.587Z,57.07
2022-10-10T09:39:38.836Z,57.42
2022-10-10T09:42:06.080Z,55.43
2022-10-10T09:44:30.243Z,55.09
2022-10-10T09:46:54.434Z,55.23
2022-10-10T09:49:20.264Z,55.41
2022-10-10T09:51:46.650Z,55.73
2022-10-10T09:54:10.696Z,56.37
2022-10-10T09:56:41.714Z,55.91
2022-10-10T09:59:05.444Z,57.15
2022-10-10T10:01:32.688Z,56.04
2022-10-10T10:04:27.919Z,59.03
2022-10-10T10:06:53.846Z,56.47
2022-10-10T10:09:20.627Z,55.32
2022-10-10T10:11:45.395Z,56.76
2022-10-10T10:14:25.720Z,57.86
2022-10-10T10:16:49.293Z,56.48
2022-10-10T10:19:33.309Z,56.83
2022-10-10T10:21:58.268Z,56.99
2022-10-10T10:24:25.299Z,57.05
2022-10-10T10:26:50.605Z,58.12
2022-10-10T10:29:30.135Z,55.21
2022-10-10T10:32:00.120Z,52.97
2022-10-10T10:34:47.655Z,52.56
2022-10-10T10:37:22.320Z,53.75
2022-10-10T10:40:16.721Z,53.37
2022-10-10T10:43:16.720Z,51.15
2022-10-10T10:45:53.031Z,51.82
2022-10-10T10:48:29.374Z,51.81
2022-10-10T10:50:57.629Z,52.20
2022-10-10T10:53:35.982Z,49.22
2022-10-10T10:56:13.163Z,50.29
2022-10-10T11:02:00.974Z,50.84
2022-10-10T11:05:22.508Z,51.49
2022-10-10T11:07:47.158Z,50.59
2022-10-10T11:10:19.760Z,50.87
2022-10-10T11:12:59.188Z,50.72
2022-10-10T11:15:37.524Z,49.04
2022-10-10T11:18:15.416Z,49.75
2022-10-10T11:20:44.350Z,50.14
2022-10-10T11:23:13.258Z,50.56
2022-10-10T11:25:44.551Z,51.33
2022-10-10T11:28:15.037Z,50.92
2022-10-10T11:30:46.845Z,51.03
2022-10-10T11:33:16.905Z,52.22
2022-10-10T11:35:46.006Z,51.14
2022-10-10T11:38:21.274Z,50.85
2022-10-10T11:40:54.640Z,51.06
2022-10-10T11:43:29.816Z,51.27
2022-10-10T11:46:03.173Z,51.04
2022-10-10T11:48:37.818Z,51.54
2022-10-10T11:51:07.265Z,51.58
2022-10-10T11:53:39.268Z,51.71
2022-10-10T11:56:16.911Z,54.17
2022-10-10T11:58:44.754Z,51.95
2022-10-10T12:01:19.617Z,53.01
2022-10-10T12:03:43.259Z,52.38
2022-10-10T12:06:20.177Z,53.75
2022-10-10T12:08:50.631Z,51.62
2022-10-10T12:11:26.014Z,51.80
2022-10-10T12:13:55.248Z,52.94
2022-10-10T12:16:25.783Z,53.50
2022-10-10T12:18:55.460Z,53.52
2022-10-10T12:21:22.501Z,52.98
2022-10-10T12:23:50.444Z,51.86
2022-10-10T12:26:21.806Z,51.19
2022-10-10T12:29:05.539Z,50.49
2022-10-10T12:31:32.331Z,51.38
2022-10-10T12:34:42.867Z,52.16
2022-10-10T12:37:26.127Z,52.23
2022-10-10T12:40:22.583Z,52.40
2022-10-10T12:43:24.086Z,52.17
2022-10-10T12:46:09.037Z,51.83
2022-10-10T12:48:33.416Z,51.72
2022-10-10T12:51:01.888Z,51.93
2022-10-10T12:53:28.626Z,52.06
2022-10-10T12:55:55.848Z,52.77
2022-10-10T12:58:27.583Z,52.41
2022-10-10T13:00:52.468Z,51.59
2022-10-10T13:03:25.582Z,52.66
2022-10-10T13:05:50.947Z,53.54
2022-10-10T13:08:19.584Z,53.21
2022-10-10T13:10:43.251Z,52.64
2022-10-10T13:13:18.116Z,51.86
2022-10-10T13:15:41.743Z,52.21
2022-10-10T13:18:05.481Z,53.08
2022-10-10T13:20:37.599Z,53.49
2022-10-10T13:23:06.362Z,53.38
2022-10-10T13:25:31.376Z,52.84
2022-10-10T13:27:55.022Z,53.86
2022-10-10T13:30:22.723Z,53.59
2022-10-10T13:32:47.005Z,52.77
2022-10-10T13:35:18.111Z,54.80
2022-10-10T13:37:43.271Z,54.08
2022-10-10T13:40:13.845Z,53.22
2022-10-10T13:42:41.161Z,53.13
2022-10-10T13:45:32.163Z,53.51
2022-10-10T13:48:20.715Z,54.07
2022-10-10T13:51:07.943Z,53.47
2022-10-10T13:53:53.847Z,54.41
2022-10-10T13:56:23.732Z,54.63
2022-10-10T13:58:51.706Z,57.39
2022-10-10T14:01:29.613Z,55.75
2022-10-10T14:03:56.067Z,56.41
2022-10-10T14:06:21.281Z,55.38
2022-10-10T14:08:44.943Z,56.20
2022-10-10T14:11:10.165Z,55.09
2022-10-10T14:13:36.275Z,56.21
2022-10-10T14:16:15.004Z,55.77
2022-10-10T14:18:38.587Z,56.47
2022-10-10T14:21:02.241Z,56.56
2022-10-10T14:23:25.995Z,56.26
2022-10-10T14:25:51.060Z,56.28
2022-10-10T14:28:19.221Z,56.86
2022-10-10T14:30:42.964Z,56.70
2022-10-10T14:33:13.681Z,56.63
2022-10-10T14:35:37.724Z,57.29
2022-10-10T14:38:01.302Z,57.44
2022-10-10T14:40:24.887Z,56.93
2022-10-10T14:42:48.652Z,56.59
2022-10-10T14:45:15.523Z,57.54
2022-10-10T14:47:39.027Z,56.91
2022-10-10T14:50:04.055Z,56.97
2022-10-10T14:52:27.567Z,56.94
2022-10-10T14:54:51.133Z,57.12
2022-10-10T14:57:15.444Z,56.62
2022-10-10T14:59:47.522Z,56.89
2022-10-10T15:02:13.974Z,58.03
2022-10-10T15:04:37.551Z,57.84
2022-10-10T15:07:12.967Z,58.34
2022-10-10T15:09:41.865Z,58.20
2022-10-10T15:12:11.679Z,57.47
2022-10-10T15:14:35.412Z,57.67
2022-10-10T15:16:59.022Z,57.92
2022-10-10T15:19:22.691Z,58.98
2022-10-10T15:21:46.259Z,58.00
2022-10-10T15:24:11.258Z,59.06
2022-10-10T15:26:34.814Z,58.89
2022-10-10T15:28:58.935Z,60.22
2022-10-10T15:31:31.499Z,58.77
2022-10-10T15:33:56.142Z,59.65
2022-10-10T15:36:19.656Z,60.73
2022-10-10T15:38:43.330Z,60.43
2022-10-10T15:41:10.332Z,61.21
2022-10-10T15:43:43.907Z,60.67
2022-10-10T15:46:10.818Z,61.12
2022-10-10T15:48:34.324Z,60.20
2022-10-10T15:50:57.879Z,62.31
2022-10-10T15:53:21.699Z,62.17
2022-10-10T15:55:46.100Z,62.44
2022-10-10T15:58:11.178Z,62.97
2022-10-10T16:00:34.973Z,62.80
2022-10-10T16:02:58.500Z,62.22
2022-10-10T16:05:22.249Z,62.38
2022-10-10T16:07:48.254Z,62.97
2022-10-10T16:10:12.106Z,63.16
2022-10-10T16:12:35.640Z,63.03
2022-10-10T16:15:06.029Z,64.22
2022-10-10T16:17:30.575Z,63.62
2022-10-10T16:19:54.275Z,64.39
2022-10-10T16:22:17.891Z,64.95
2022-10-10T16:24:42.758Z,64.36
2022-10-10T16:27:08.148Z,65.16
2022-10-10T16:29:31.662Z,65.47
2022-10-10T16:31:56.599Z,65.40
2022-10-10T16:34:20.268Z,66.39
2022-10-10T16:36:44.073Z,66.32
2022-10-10T16:39:07.643Z,66.13
2022-10-10T16:41:47.419Z,66.74
2022-10-10T16:44:11.391Z,66.54
2022-10-10T16:46:35.099Z,67.05
2022-10-10T16:49:01.269Z,66.89
2022-10-10T16:51:25.804Z,67.69
2022-10-10T16:53:49.771Z,67.89
2022-10-10T16:56:16.047Z,68.26
2022-10-10T16:58:40.448Z,68.08
2022-10-10T17:01:06.198Z,68.98
2022-10-10T17:03:30.011Z,68.89
2022-10-10T17:06:03.990Z,68.87
2022-10-10T17:08:27.563Z,69.91
2022-10-10T17:10:51.069Z,70.09
2022-10-10T17:13:14.713Z,70.78
2022-10-10T17:15:43.140Z,70.09
2022-10-10T17:18:09.823Z,70.65
2022-10-10T17:20:34.732Z,71.29
2022-10-10T17:22:59.816Z,71.59
2022-10-10T17:25:23.348Z,71.68
2022-10-10T17:27:46.927Z,71.94
2022-10-10T17:30:12.756Z,72.77
2022-10-10T17:32:36.307Z,72.56
2022-10-10T17:34:59.851Z,73.05
2022-10-10T17:37:23.457Z,73.39
2022-10-10T17:39:48.722Z,73.03
2022-10-10T17:42:12.508Z,74.16
2022-10-10T17:44:43.327Z,74.21
2022-10-10T17:47:08.943Z,73.83
2022-10-10T17:49:32.627Z,74.42
2022-10-10T17:51:56.179Z,74.48
2022-10-10T17:54:19.968Z,74.22
2022-10-10T17:56:45.655Z,75.31
2022-10-10T17:59:10.224Z,76.38
2022-10-10T18:01:34.517Z,75.79
2022-10-10T18:03:58.172Z,76.40
2022-10-10T18:06:23.783Z,76.25
2022-10-10T18:08:48.426Z,75.94
2022-10-10T18:11:14.914Z,75.08
2022-10-10T18:13:39.836Z,78.57
2022-10-10T18:16:08.594Z,76.90
2022-10-10T18:18:32.367Z,76.73
2022-10-10T18:21:01.693Z,76.38
2022-10-10T18:23:28.100Z,77.83
2022-10-10T18:25:51.720Z,77.57
2022-10-10T18:28:15.464Z,77.87
2022-10-10T18:30:43.668Z,77.77
2022-10-10T18:33:07.268Z,77.55
2022-10-10T18:35:30.778Z,76.87
2022-10-10T18:37:54.402Z,76.77
2022-10-10T18:40:19.808Z,77.36
2022-10-10T18:42:43.423Z,77.82
2022-10-10T18:45:08.568Z,77.62
2022-10-10T18:47:33.606Z,77.55
2022-10-10T18:49:57.150Z,78.06
2022-10-10T18:52:20.831Z,77.93
2022-10-10T18:54:44.567Z,79.20
2022-10-10T18:57:08.167Z,78.42
2022-10-10T18:59:32.142Z,77.56
2022-10-10T19:01:55.817Z,78.75
2022-10-10T19:04:21.723Z,78.00
2022-10-10T19:06:45.487Z,78.57
2022-10-10T19:09:11.483Z,78.08
2022-10-10T19:11:39.209Z,78.23
2022-10-10T19:14:05.675Z,78.68
2022-10-10T19:16:29.807Z,79.01
2022-10-10T19:18:57.544Z,79.60
2022-10-10T19:21:23.286Z,79.46
2022-10-10T19:23:46.909Z,82.11
2022-10-10T19:26:13.131Z,81.39
2022-10-10T19:28:38.075Z,80.19
2022-10-10T19:31:06.789Z,80.13
2022-10-10T19:33:31.070Z,79.20
2022-10-10T19:35:54.723Z,79.63
2022-10-10T19:38:19.734Z,80.56
2022-10-10T19:40:46.268Z,79.52
2022-10-10T19:43:09.823Z,81.30
2022-10-10T19:45:33.412Z,79.65
2022-10-10T19:47:57.011Z,79.80
2022-10-10T19:50:20.708Z,80.14
2022-10-10T19:52:44.277Z,80.34
2022-10-10T19:55:10.702Z,81.20
2022-10-10T19:57:34.227Z,81.72
2022-10-10T19:59:57.868Z,80.48
2022-10-10T20:02:21.391Z,79.45
2022-10-10T20:04:44.997Z,79.43
2022-10-10T20:07:08.632Z,80.14
2022-10-10T20:09:32.219Z,80.59
2022-10-10T20:11:57.199Z,79.65
2022-10-10T20:14:20.792Z,81.21
2022-10-10T20:16:44.433Z,82.02
2022-10-10T20:19:08.656Z,85.34
2022-10-10T20:21:34.804Z,84.19
2022-10-10T20:23:59.776Z,83.54
2022-10-10T20:26:25.576Z,82.64
2022-10-10T20:28:52.377Z,84.68
2022-10-10T20:31:20.090Z,85.28
2022-10-10T20:33:44.952Z,86.85
2022-10-10T20:36:09.900Z,86.87
2022-10-10T20:38:33.773Z,85.26
2022-10-10T20:40:57.295Z,83.97
2022-10-10T20:43:20.939Z,84.37
2022-10-10T20:45:45.835Z,82.87
2022-10-10T20:48:09.971Z,81.74
2022-10-10T20:50:35.519Z,80.90
2022-10-10T20:52:59.115Z,81.72
2022-10-10T20:55:22.694Z,81.88
2022-10-10T20:57:46.287Z,81.19
2022-10-10T21:00:12.303Z,80.49
2022-10-10T21:02:37.296Z,79.81
2022-10-10T21:05:00.867Z,82.04
2022-10-10T21:07:24.515Z,81.40
2022-10-10T21:09:48.043Z,82.02
2022-10-10T21:12:11.700Z,82.88
2022-10-10T21:14:35.264Z,83.18
2022-10-10T21:16:58.926Z,83.26
2022-10-10T21:19:23.946Z,83.50
2022-10-10T21:21:47.962Z,83.23
2022-10-10T21:24:13.347Z,82.28
2022-10-10T21:26:36.925Z,83.26
2022-10-10T21:29:01.618Z,84.01
2022-10-10T21:31:28.505Z,84.56
2022-10-10T21:33:52.085Z,84.33
2022-10-10T21:36:18.071Z,84.69
2022-10-10T21:38:41.928Z,84.20
2022-10-10T21:41:07.275Z,84.32
2022-10-10T21:43:31.096Z,85.54
2022-10-10T21:45:54.707Z,84.42
2022-10-10T21:48:18.270Z,84.99
2022-10-10T21:50:42.369Z,84.98
2022-10-10T21:53:09.132Z,84.99
2022-10-10T21:55:32.879Z,84.73
2022-10-10T21:57:56.411Z,83.92
2022-10-10T22:00:21.610Z,83.71
2022-10-10T22:02:45.683Z,85.26
2022-10-10T22:05:12.150Z,84.03
2022-10-10T22:07:35.694Z,82.98
2022-10-10T22:10:00.953Z,83.93
2022-10-10T22:12:24.675Z,83.90
2022-10-10T22:14:48.279Z,83.96
2022-10-10T22:17:11.855Z,83.22
2022-10-10T22:19:35.460Z,83.20
2022-10-10T22:21:58.973Z,83.56
2022-10-10T22:24:22.817Z,84.06
2022-10-10T22:26:47.776Z,84.66
2022-10-10T22:29:11.360Z,84.68
2022-10-10T22:31:37.890Z,84.49
2022-10-10T22:34:01.631Z,85.07
2022-10-10T22:36:25.190Z,84.99
2022-10-10T22:38:48.752Z,86.43
2022-10-10T22:41:14.007Z,85.40
2022-10-10T22:43:39.591Z,83.93
2022-10-10T22:46:03.647Z,85.51
2022-10-10T22:48:27.723Z,85.87
2022-10-10T22:51:01.092Z,85.15
2022-10-10T22:53:24.977Z,86.11
2022-10-10T22:55:48.535Z,85.81
2022-10-10T22:58:12.117Z,86.42
2022-10-10T23:00:37.118Z,86.63
2022-10-10T23:03:00.768Z,87.38
2022-10-10T23:05:24.290Z,85.99
2022-10-10T23:07:47.899Z,85.79
2022-10-10T23:10:11.644Z,85.50
2022-10-10T23:12:35.209Z,84.60
2022-10-10T23:14:58.744Z,83.79
2022-10-10T23:17:23.858Z,83.39
2022-10-10T23:19:47.399Z,83.00
2022-10-10T23:22:12.620Z,82.94
2022-10-10T23:24:38.620Z,82.05
2022-10-10T23:27:02.202Z,83.15
2022-10-10T23:29:25.777Z,82.14
2022-10-10T23:31:49.335Z,82.05
2022-10-10T23:34:14.263Z,82.30
2022-10-10T23:36:37.830Z,82.09
2022-10-10T23:39:02.914Z,81.83
2022-10-10T23:41:28.134Z,82.28
2022-10-10T23:43:51.749Z,82.19
2022-10-10T23:46:15.540Z,81.59
2022-10-10T23:48:39.208Z,81.43
2022-10-10T23:51:04.487Z,79.80
2022-10-10T23:53:28.147Z,80.88
2022-10-10T23:55:51.800Z,81.96
2022-10-10T23:58:15.674Z,81.23
